Time;durP1;ratioP1;P1;durP2;ratioP2;P2;SDS_P1;SDS_P2;PMS_P1;PMS_P2;Temp;Humidity;BMP_temperature;BMP_pressure;BME280_temperature;BME280_humidity;BME280_pressure;Samples;Min_cycle;Max_cycle;Signal;HPM_P1;HPM_P2
2021/10/24 00:01:16;;;;;;;6.45;2.33;;;12.40;80.30;;;;;;5084804;28;20047;-61
2021/10/24 00:03:43;;;;;;;2.70;1.10;;;12.30;80.10;;;;;;5079839;28;20458;-61
2021/10/24 00:06:09;;;;;;;8.63;1.75;;;12.30;80.30;;;;;;5082450;28;20074;-60
2021/10/24 00:08:36;;;;;;;2.92;1.55;;;12.40;80.20;;;;;;5084869;28;20156;-61
2021/10/24 00:11:03;;;;;;;6.63;1.92;;;12.30;80.20;;;;;;5078475;28;20684;-61
2021/10/24 00:13:30;;;;;;;4.95;1.35;;;12.30;80.20;;;;;;5084417;28;20106;-60
2021/10/24 00:15:58;;;;;;;4.43;1.20;;;12.30;80.30;;;;;;5085611;28;20052;-60
2021/10/24 00:18:26;;;;;;;3.90;1.17;;;12.30;80.10;;;;;;5075027;28;20123;-59
2021/10/24 00:20:53;;;;;;;5.30;1.45;;;12.40;80.30;;;;;;5073060;28;20055;-60
2021/10/24 00:23:20;;;;;;;7.28;1.30;;;12.30;80.30;;;;;;5087986;28;20074;-60
2021/10/24 00:25:47;;;;;;;5.80;1.00;;;12.30;80.20;;;;;;5088763;28;20131;-61
2021/10/24 00:28:14;;;;;;;6.00;1.25;;;12.30;80.30;;;;;;5088454;28;20143;-63
2021/10/24 00:30:47;;;;;;;4.55;1.38;;;12.40;80.20;;;;;;5082692;28;20055;-60
2021/10/24 00:33:15;;;;;;;8.90;1.30;;;12.40;80.20;;;;;;5083170;28;20079;-61
2021/10/24 00:35:42;;;;;;;4.40;1.65;;;12.40;80.10;;;;;;5081679;28;20059;-61
2021/10/24 00:38:08;;;;;;;2.80;1.25;;;12.40;80.00;;;;;;5082293;28;20084;-60
2021/10/24 00:40:35;;;;;;;3.58;1.02;;;12.40;80.70;;;;;;5073897;28;20052;-60
2021/10/24 00:43:02;;;;;;;4.00;1.42;;;12.40;80.10;;;;;;5074970;28;20088;-60
2021/10/24 00:45:29;;;;;;;5.85;1.33;;;12.40;80.10;;;;;;5088362;28;20079;-60
2021/10/24 00:47:56;;;;;;;6.28;1.42;;;12.40;80.00;;;;;;5087571;28;20487;-60
2021/10/24 00:50:23;;;;;;;4.57;1.42;;;12.50;79.90;;;;;;5080228;28;20488;-60
2021/10/24 00:52:50;;;;;;;4.47;1.30;;;12.40;79.90;;;;;;5082035;28;20044;-60
2021/10/24 00:55:17;;;;;;;7.85;1.80;;;12.40;79.90;;;;;;5081667;28;20080;-60
2021/10/24 00:57:44;;;;;;;5.88;1.15;;;12.40;80.00;;;;;;5087530;28;20128;-61
2021/10/24 01:00:11;;;;;;;3.45;1.90;;;12.30;79.90;;;;;;5082024;28;20083;-61
2021/10/24 01:02:39;;;;;;;6.80;1.20;;;12.40;80.20;;;;;;5079734;28;20507;-60
2021/10/24 01:05:07;;;;;;;2.67;1.10;;;12.40;80.10;;;;;;5067687;28;20428;-61
2021/10/24 01:07:34;;;;;;;3.78;1.38;;;12.40;80.10;;;;;;5089426;28;20091;-59
2021/10/24 01:10:01;;;;;;;7.68;1.30;;;12.30;80.10;;;;;;5084568;28;20082;-59
2021/10/24 01:12:28;;;;;;;4.05;1.48;;;12.30;80.30;;;;;;5085923;28;20048;-61
2021/10/24 01:14:54;;;;;;;6.03;1.33;;;12.30;80.30;;;;;;5086050;28;20045;-62
2021/10/24 01:17:23;;;;;;;4.00;1.13;;;12.40;80.40;;;;;;5083364;28;20063;-60
2021/10/24 01:19:50;;;;;;;3.83;1.35;;;12.40;80.30;;;;;;5086243;28;20077;-61
2021/10/24 01:22:17;;;;;;;7.13;1.42;;;12.40;80.30;;;;;;5081452;28;20089;-60
2021/10/24 01:24:44;;;;;;;4.07;1.77;;;12.40;80.30;;;;;;5088955;28;20044;-62
2021/10/24 01:27:10;;;;;;;4.63;1.48;;;12.30;80.30;;;;;;5079361;28;20051;-59
2021/10/24 01:29:37;;;;;;;5.95;3.30;;;12.40;80.50;;;;;;5087820;28;20040;-62
2021/10/24 01:32:04;;;;;;;2.67;1.23;;;12.30;80.60;;;;;;5078713;28;20056;-60
2021/10/24 01:34:31;;;;;;;5.28;0.95;;;12.30;80.40;;;;;;5081614;28;20495;-61
2021/10/24 01:36:58;;;;;;;3.78;1.00;;;12.30;80.50;;;;;;5082066;28;20094;-61
2021/10/24 01:39:25;;;;;;;6.15;1.33;;;12.30;80.40;;;;;;5088531;28;20044;-60
2021/10/24 01:41:52;;;;;;;3.40;1.10;;;12.30;80.30;;;;;;5080853;28;20148;-61
2021/10/24 01:44:19;;;;;;;5.07;1.15;;;12.30;80.30;;;;;;4725205;28;10000197;-61
2021/10/24 01:46:45;;;;;;;3.92;1.50;;;12.40;80.60;;;;;;5090522;28;20068;-60
2021/10/24 01:49:12;;;;;;;1.88;0.98;;;12.40;80.60;;;;;;5085355;28;20044;-61
2021/10/24 01:51:39;;;;;;;3.58;1.33;;;12.30;80.50;;;;;;5087912;28;20060;-60
2021/10/24 01:54:06;;;;;;;2.20;1.05;;;12.30;80.80;;;;;;5087210;28;20424;-61
2021/10/24 01:56:33;;;;;;;3.30;1.52;;;12.30;80.70;;;;;;5083605;28;20049;-60
2021/10/24 01:59:00;;;;;;;2.80;1.42;;;12.30;80.70;;;;;;5084467;28;20063;-60
2021/10/24 02:01:26;;;;;;;6.93;1.20;;;12.30;80.90;;;;;;5079877;28;20079;-60
2021/10/24 02:03:53;;;;;;;5.13;1.35;;;12.30;80.80;;;;;;5088020;28;20075;-59
2021/10/24 02:06:20;;;;;;;6.60;1.30;;;12.30;80.70;;;;;;5086723;28;20051;-60
2021/10/24 02:08:47;;;;;;;4.30;1.50;;;12.30;80.70;;;;;;5076090;28;20079;-60
2021/10/24 02:11:14;;;;;;;6.65;1.27;;;12.30;80.90;;;;;;5083047;28;20116;-60
2021/10/24 02:13:40;;;;;;;8.43;1.70;;;12.30;80.90;;;;;;5085838;28;20047;-61
2021/10/24 02:16:07;;;;;;;7.22;1.25;;;12.30;81.00;;;;;;5083451;28;20087;-60
2021/10/24 02:18:34;;;;;;;2.08;1.27;;;12.30;81.10;;;;;;5084386;28;20058;-61
2021/10/24 02:21:01;;;;;;;5.47;1.17;;;12.30;81.10;;;;;;5078439;28;20067;-61
2021/10/24 02:23:32;;;;;;;6.40;1.50;;;12.30;80.90;;;;;;5078116;28;20052;-59
2021/10/24 02:25:59;;;;;;;3.90;1.63;;;12.20;81.10;;;;;;5086717;28;20106;-60
2021/10/24 02:28:26;;;;;;;3.78;1.00;;;12.20;81.20;;;;;;5082970;28;20052;-60
2021/10/24 02:30:53;;;;;;;2.47;1.70;;;12.30;81.00;;;;;;5076090;28;20044;-60
2021/10/24 02:33:20;;;;;;;3.63;1.00;;;12.30;81.10;;;;;;5085983;28;20101;-60
2021/10/24 02:35:46;;;;;;;6.93;1.70;;;12.30;81.10;;;;;;5076823;28;20048;-59
2021/10/24 02:38:13;;;;;;;4.35;1.30;;;12.30;81.20;;;;;;5080081;28;20036;-61
2021/10/24 02:40:43;;;;;;;8.48;1.20;;;12.30;81.00;;;;;;5077571;28;20147;-61
2021/10/24 02:43:10;;;;;;;6.22;1.10;;;12.20;81.10;;;;;;5081905;28;20125;-59
2021/10/24 02:45:37;;;;;;;6.53;1.27;;;12.30;81.10;;;;;;5084626;28;20084;-61
2021/10/24 02:48:04;;;;;;;7.65;1.17;;;12.30;80.90;;;;;;5079366;28;20475;-60
2021/10/24 02:50:31;;;;;;;5.10;1.38;;;12.20;81.10;;;;;;5087467;28;20105;-60
2021/10/24 02:52:58;;;;;;;3.95;1.33;;;12.20;81.10;;;;;;5073631;28;20388;-62
2021/10/24 02:55:25;;;;;;;2.17;0.90;;;12.30;80.90;;;;;;5079982;28;20451;-60
2021/10/24 02:57:52;;;;;;;4.55;1.08;;;12.20;80.90;;;;;;5079671;28;20071;-60
2021/10/24 03:00:19;;;;;;;5.28;1.10;;;12.20;80.90;;;;;;5087195;28;20099;-60
2021/10/24 03:02:46;;;;;;;5.47;1.38;;;12.20;80.80;;;;;;5081901;28;20119;-60
2021/10/24 03:05:13;;;;;;;5.10;0.98;;;12.20;80.90;;;;;;5075421;28;20048;-60
2021/10/24 03:07:40;;;;;;;5.47;1.33;;;12.20;80.70;;;;;;5083800;28;20055;-60
2021/10/24 03:10:07;;;;;;;4.03;1.30;;;12.20;80.60;;;;;;5083921;28;20072;-59
2021/10/24 03:12:33;;;;;;;6.00;1.20;;;12.20;80.50;;;;;;5084850;28;20048;-60
2021/10/24 03:15:02;;;;;;;3.65;1.17;;;12.20;80.30;;;;;;5081686;28;20060;-60
2021/10/24 03:17:29;;;;;;;7.43;1.08;;;12.20;80.40;;;;;;5085664;28;20044;-60
2021/10/24 03:19:55;;;;;;;4.40;1.33;;;12.20;80.30;;;;;;5080998;28;20045;-60
2021/10/24 03:22:22;;;;;;;8.70;1.27;;;12.20;80.60;;;;;;5085983;28;20047;-60
2021/10/24 03:24:49;;;;;;;2.92;1.02;;;12.20;81.20;;;;;;5079993;28;20087;-61
2021/10/24 03:27:16;;;;;;;3.38;1.38;;;12.10;80.50;;;;;;5076865;28;20048;-60
2021/10/24 03:29:43;;;;;;;2.75;1.00;;;12.20;80.60;;;;;;5082104;28;20044;-61
2021/10/24 03:32:09;;;;;;;6.28;1.70;;;12.20;80.60;;;;;;5075031;28;20496;-60
2021/10/24 03:34:36;;;;;;;2.50;0.80;;;12.20;80.60;;;;;;5089198;28;20043;-61
2021/10/24 03:37:03;;;;;;;5.10;1.38;;;12.20;80.60;;;;;;5087126;28;20101;-60
2021/10/24 03:39:30;;;;;;;4.90;1.08;;;12.20;80.60;;;;;;5085462;28;20044;-60
2021/10/24 03:41:57;;;;;;;5.00;1.40;;;12.20;80.40;;;;;;5079429;28;20101;-61
2021/10/24 03:44:24;;;;;;;2.15;0.80;;;12.20;80.30;;;;;;5082211;28;20071;-60
2021/10/24 03:46:51;;;;;;;2.72;1.05;;;12.20;80.20;;;;;;5089544;28;20097;-60
2021/10/24 03:49:18;;;;;;;1.30;0.70;;;12.10;79.80;;;;;;5077297;28;20100;-60
2021/10/24 03:51:45;;;;;;;3.30;1.10;;;12.10;79.90;;;;;;5077150;28;20160;-60
2021/10/24 03:54:12;;;;;;;3.63;1.02;;;12.20;80.10;;;;;;5083915;28;20056;-60
2021/10/24 03:56:39;;;;;;;5.35;0.93;;;12.20;80.30;;;;;;5088718;28;20184;-60
2021/10/24 03:59:06;;;;;;;3.00;1.23;;;12.20;80.30;;;;;;5076015;28;20036;-60
2021/10/24 04:01:33;;;;;;;6.88;1.05;;;12.10;80.40;;;;;;5085762;28;20056;-60
2021/10/24 04:04:00;;;;;;;3.17;0.98;;;12.20;80.20;;;;;;5083927;28;20434;-59
2021/10/24 04:06:27;;;;;;;5.85;0.90;;;12.20;80.20;;;;;;5088700;28;20044;-60
2021/10/24 04:08:54;;;;;;;3.72;0.95;;;12.20;80.20;;;;;;5087526;28;20098;-60
2021/10/24 04:11:21;;;;;;;4.05;0.80;;;12.20;80.20;;;;;;5090386;28;20048;-60
2021/10/24 04:13:47;;;;;;;5.82;1.33;;;12.20;80.30;;;;;;5084659;28;20410;-60
2021/10/24 04:16:14;;;;;;;2.88;1.23;;;12.30;80.50;;;;;;5076375;28;20502;-60
2021/10/24 04:18:41;;;;;;;2.90;1.02;;;12.30;80.50;;;;;;5085710;28;20044;-62
2021/10/24 04:21:08;;;;;;;2.30;0.90;;;12.30;80.50;;;;;;5082545;28;20044;-61
2021/10/24 04:23:35;;;;;;;4.65;1.00;;;12.20;80.60;;;;;;5080596;28;20044;-60
2021/10/24 04:26:02;;;;;;;5.05;0.98;;;12.20;80.40;;;;;;5076153;28;20044;-60
2021/10/24 04:28:29;;;;;;;2.92;1.80;;;12.20;80.50;;;;;;5086372;28;20044;-60
2021/10/24 04:30:56;;;;;;;5.07;1.10;;;12.20;80.50;;;;;;5085621;28;20122;-61
2021/10/24 04:33:23;;;;;;;1.13;0.70;;;12.20;80.30;;;;;;5077686;28;20044;-60
2021/10/24 04:35:50;;;;;;;2.22;0.65;;;12.20;80.40;;;;;;5081639;28;20102;-60
2021/10/24 04:38:17;;;;;;;1.70;0.80;;;12.20;80.30;;;;;;5082850;28;20530;-60
2021/10/24 04:40:44;;;;;;;3.00;1.27;;;12.30;80.40;;;;;;5085566;28;20055;-61
2021/10/24 04:43:14;;;;;;;1.45;0.75;;;12.30;80.50;;;;;;5076360;28;20060;-60
2021/10/24 04:45:41;;;;;;;7.93;1.67;;;12.20;80.30;;;;;;5084512;28;20109;-59
2021/10/24 04:48:09;;;;;;;4.78;1.08;;;12.20;80.50;;;;;;5081043;28;20072;-60
2021/10/24 04:50:40;;;;;;;2.38;1.00;;;12.20;80.60;;;;;;5074343;28;20511;-60
2021/10/24 04:53:07;;;;;;;4.85;1.33;;;12.20;80.70;;;;;;5084576;28;20051;-60
2021/10/24 04:55:34;;;;;;;4.40;1.00;;;12.20;80.50;;;;;;5074506;28;20091;-61
2021/10/24 04:58:01;;;;;;;4.07;1.10;;;12.20;80.60;;;;;;5080596;28;20078;-60
2021/10/24 05:00:28;;;;;;;4.70;1.88;;;12.20;80.50;;;;;;5071250;28;20108;-60
2021/10/24 05:02:55;;;;;;;6.65;1.02;;;12.20;80.40;;;;;;5081101;28;20461;-60
2021/10/24 05:05:22;;;;;;;3.55;0.95;;;12.20;80.50;;;;;;5082457;28;20119;-61
2021/10/24 05:07:49;;;;;;;9.68;1.67;;;12.20;80.60;;;;;;5079489;28;20040;-61
2021/10/24 05:10:16;;;;;;;3.97;1.30;;;12.20;80.80;;;;;;5089055;28;20044;-61
2021/10/24 05:12:43;;;;;;;4.97;1.17;;;12.20;80.80;;;;;;5081571;28;20072;-60
2021/10/24 05:15:10;;;;;;;4.97;1.25;;;12.20;80.70;;;;;;5088866;28;20526;-61
2021/10/24 05:17:37;;;;;;;2.38;1.10;;;12.20;80.50;;;;;;5088344;28;20579;-61
2021/10/24 05:20:05;;;;;;;3.63;1.02;;;12.20;81.10;;;;;;5079977;28;20445;-60
2021/10/24 05:22:32;;;;;;;2.10;1.08;;;12.20;80.20;;;;;;5082125;28;20102;-61
2021/10/24 05:24:59;;;;;;;3.80;1.52;;;12.20;80.30;;;;;;5087025;28;20044;-60
2021/10/24 05:27:26;;;;;;;2.40;1.08;;;12.20;80.10;;;;;;5082895;28;20044;-60
2021/10/24 05:29:57;;;;;;;6.53;1.08;;;12.20;80.20;;;;;;5085146;28;20040;-60
2021/10/24 05:32:24;;;;;;;1.92;1.10;;;12.20;80.30;;;;;;5086029;28;20084;-60
2021/10/24 05:34:51;;;;;;;3.33;1.10;;;12.20;80.30;;;;;;5089306;28;20055;-61
2021/10/24 05:37:18;;;;;;;4.10;1.27;;;12.20;80.20;;;;;;5075029;28;20553;-60
2021/10/24 05:39:45;;;;;;;4.13;1.42;;;12.20;80.30;;;;;;5081804;28;20053;-60
2021/10/24 05:42:11;;;;;;;3.47;0.98;;;12.20;80.20;;;;;;5084408;28;20193;-61
2021/10/24 05:44:38;;;;;;;6.28;1.27;;;12.20;80.40;;;;;;5092169;28;20056;-60
2021/10/24 05:47:05;;;;;;;4.00;1.00;;;12.20;80.30;;;;;;5086184;28;20102;-60
2021/10/24 05:49:32;;;;;;;4.22;1.35;;;12.20;80.30;;;;;;5081465;28;20449;-60
2021/10/24 05:51:59;;;;;;;5.43;0.85;;;12.20;80.50;;;;;;5081937;28;20076;-61
2021/10/24 05:54:25;;;;;;;6.15;1.40;;;12.20;80.50;;;;;;5078028;28;20079;-61
2021/10/24 05:56:52;;;;;;;7.45;1.02;;;12.20;80.50;;;;;;5080517;28;20515;-61
2021/10/24 05:59:19;;;;;;;2.28;1.00;;;12.20;80.90;;;;;;5079589;28;20490;-60
2021/10/24 06:01:46;;;;;;;5.75;1.35;;;12.20;80.40;;;;;;5088201;28;20039;-60
2021/10/24 06:04:13;;;;;;;5.47;1.17;;;12.20;80.70;;;;;;5088115;28;20044;-60
2021/10/24 06:06:40;;;;;;;9.43;1.40;;;12.20;80.60;;;;;;5084768;28;20048;-60
2021/10/24 06:09:07;;;;;;;6.13;1.13;;;12.10;80.70;;;;;;5076083;28;20457;-60
2021/10/24 06:11:59;;;;;;;3.35;1.10;;;12.20;80.80;;;;;;5085732;28;20115;-59
2021/10/24 06:14:21;;;;;;;6.28;1.20;;;12.20;80.70;;;;;;5066675;28;20040;-61
2021/10/24 06:16:48;;;;;;;6.43;1.35;;;12.10;80.70;;;;;;5087145;28;20039;-61
2021/10/24 06:19:15;;;;;;;5.60;1.55;;;12.10;80.60;;;;;;5087774;28;20072;-60
2021/10/24 06:21:42;;;;;;;6.38;1.33;;;12.10;80.60;;;;;;5078685;28;20048;-61
2021/10/24 06:24:09;;;;;;;5.68;1.30;;;12.10;80.60;;;;;;5075881;28;20083;-61
2021/10/24 06:26:36;;;;;;;6.40;1.42;;;12.10;80.60;;;;;;5085354;28;20044;-61
2021/10/24 06:29:02;;;;;;;2.88;1.42;;;12.10;80.70;;;;;;5075791;28;20078;-60
2021/10/24 06:31:29;;;;;;;6.88;1.27;;;12.20;80.80;;;;;;5082172;28;20400;-61
2021/10/24 06:33:56;;;;;;;7.75;1.65;;;12.10;80.80;;;;;;5083845;28;20407;-61
2021/10/24 06:36:23;;;;;;;6.85;2.03;;;12.00;80.80;;;;;;5089638;28;20105;-60
2021/10/24 06:38:50;;;;;;;2.80;1.00;;;12.10;81.10;;;;;;5084959;28;20044;-60
2021/10/24 06:41:17;;;;;;;6.03;1.42;;;12.10;81.20;;;;;;5091011;28;20044;-61
2021/10/24 06:43:43;;;;;;;7.88;1.30;;;12.10;81.10;;;;;;5075945;28;20053;-60
2021/10/24 06:46:10;;;;;;;7.50;1.20;;;12.10;81.00;;;;;;5080331;28;20044;-61
2021/10/24 06:48:37;;;;;;;3.85;0.90;;;12.10;81.10;;;;;;5076129;28;20056;-60
2021/10/24 06:51:04;;;;;;;2.00;0.90;;;12.10;81.00;;;;;;5078610;28;20079;-62
2021/10/24 06:53:31;;;;;;;2.92;1.23;;;12.10;80.90;;;;;;5084271;28;20069;-60
2021/10/24 06:55:58;;;;;;;4.78;1.58;;;12.00;80.90;;;;;;5086287;28;20119;-60
2021/10/24 06:58:28;;;;;;;3.50;1.10;;;12.10;81.10;;;;;;5075559;28;20511;-60
2021/10/24 07:00:55;;;;;;;4.53;1.42;;;12.10;81.00;;;;;;5083455;28;20051;-60
2021/10/24 07:03:22;;;;;;;4.45;1.27;;;12.10;80.90;;;;;;5081399;28;20066;-60
2021/10/24 07:05:49;;;;;;;4.68;1.30;;;12.10;80.60;;;;;;5085694;28;20461;-61
2021/10/24 07:08:16;;;;;;;5.07;1.55;;;12.10;80.70;;;;;;5089236;28;20047;-60
2021/10/24 07:10:42;;;;;;;4.03;1.38;;;12.10;80.90;;;;;;5077411;28;20438;-61
2021/10/24 07:13:09;;;;;;;6.20;1.33;;;12.20;80.80;;;;;;5080850;28;20087;-60
2021/10/24 07:15:36;;;;;;;6.63;1.60;;;12.20;80.90;;;;;;5074975;28;20075;-60
2021/10/24 07:18:02;;;;;;;2.13;0.90;;;12.20;80.80;;;;;;5072096;28;20119;-61
2021/10/24 07:20:29;;;;;;;2.63;1.00;;;12.20;80.80;;;;;;5076957;28;20574;-60
2021/10/24 07:22:56;;;;;;;4.38;1.20;;;12.20;80.80;;;;;;5080434;28;20093;-60
2021/10/24 07:25:24;;;;;;;3.38;0.90;;;12.10;80.90;;;;;;5077170;28;20115;-60
2021/10/24 07:27:51;;;;;;;3.58;1.20;;;12.20;80.90;;;;;;5078382;28;20051;-60
2021/10/24 07:30:19;;;;;;;11.57;1.42;;;12.20;80.80;;;;;;5075347;28;20052;-61
2021/10/24 07:32:45;;;;;;;7.70;1.17;;;12.30;81.00;;;;;;5086961;28;20101;-60
2021/10/24 07:35:13;;;;;;;2.15;1.10;;;12.30;81.00;;;;;;5082386;28;20083;-60
2021/10/24 07:37:40;;;;;;;6.75;1.05;;;12.30;80.90;;;;;;5083069;28;20075;-61
2021/10/24 07:40:07;;;;;;;4.68;1.20;;;12.30;80.90;;;;;;5082276;28;20082;-59
2021/10/24 07:42:34;;;;;;;7.95;1.50;;;12.30;80.70;;;;;;5083008;28;20090;-60
2021/10/24 07:45:02;;;;;;;1.88;1.02;;;12.30;80.90;;;;;;5087479;28;20056;-60
2021/10/24 07:47:32;;;;;;;3.90;1.40;;;12.30;80.90;;;;;;5087700;28;20048;-60
2021/10/24 07:49:59;;;;;;;5.22;1.70;;;12.40;81.00;;;;;;5089230;28;20048;-60
2021/10/24 07:52:26;;;;;;;7.63;1.20;;;12.30;80.80;;;;;;5085296;28;20091;-60
2021/10/24 07:54:58;;;;;;;4.18;1.23;;;12.40;80.80;;;;;;5068903;28;20054;-59
2021/10/24 07:57:24;;;;;;;6.10;1.23;;;12.40;80.70;;;;;;5084991;28;20122;-60
2021/10/24 07:59:51;;;;;;;5.72;1.67;;;12.40;80.70;;;;;;5075581;28;20106;-59
2021/10/24 08:02:18;;;;;;;5.18;1.20;;;12.40;80.70;;;;;;5088837;28;20123;-61
2021/10/24 08:04:46;;;;;;;7.68;1.40;;;12.40;81.00;;;;;;5087120;28;20553;-61
2021/10/24 08:07:13;;;;;;;6.40;2.95;;;12.40;80.80;;;;;;5085476;28;20036;-60
2021/10/24 08:09:41;;;;;;;4.97;1.08;;;12.50;80.90;;;;;;5080869;28;20044;-60
2021/10/24 08:12:07;;;;;;;10.40;2.35;;;12.50;80.90;;;;;;5088192;28;20040;-60
2021/10/24 08:14:35;;;;;;;2.95;1.25;;;12.60;80.60;;;;;;5071982;28;20072;-60
2021/10/24 08:17:04;;;;;;;3.70;1.20;;;12.60;80.50;;;;;;5057249;28;20094;-60
2021/10/24 08:19:30;;;;;;;5.82;1.27;;;12.60;80.50;;;;;;5058938;28;20048;-60
2021/10/24 08:21:57;;;;;;;4.32;1.55;;;12.60;80.40;;;;;;5064093;28;20087;-60
2021/10/24 08:24:24;;;;;;;2.85;1.23;;;12.60;80.40;;;;;;5061147;28;20049;-60
2021/10/24 08:26:51;;;;;;;3.45;0.80;;;12.60;80.70;;;;;;5061854;28;20109;-60
2021/10/24 08:29:18;;;;;;;3.20;1.02;;;12.70;80.50;;;;;;5057333;28;20667;-60
2021/10/24 08:31:49;;;;;;;3.08;1.52;;;12.80;80.30;;;;;;5061220;28;20091;-61
2021/10/24 08:34:17;;;;;;;3.75;1.40;;;12.80;80.10;;;;;;5060940;28;20053;-62
2021/10/24 08:36:44;;;;;;;3.00;1.30;;;12.90;80.00;;;;;;5060686;28;20087;-61
2021/10/24 08:39:10;;;;;;;5.20;1.55;;;13.00;79.90;;;;;;5058048;28;20045;-61
2021/10/24 08:41:40;;;;;;;4.82;1.25;;;13.00;79.90;;;;;;5063927;28;20463;-61
2021/10/24 08:44:08;;;;;;;6.78;1.80;;;13.00;79.30;;;;;;5064215;28;20084;-61
2021/10/24 08:46:34;;;;;;;5.35;1.30;;;13.10;79.60;;;;;;5068598;28;20076;-60
2021/10/24 08:49:01;;;;;;;4.82;1.55;;;13.40;79.40;;;;;;5065059;28;20447;-60
2021/10/24 08:51:28;;;;;;;5.25;1.08;;;13.40;78.60;;;;;;5065900;28;20072;-60
2021/10/24 08:53:56;;;;;;;3.95;1.30;;;13.50;78.80;;;;;;5058451;28;20177;-60
2021/10/24 08:56:24;;;;;;;3.08;1.20;;;13.60;78.20;;;;;;5070908;28;20098;-61
2021/10/24 08:58:52;;;;;;;7.57;1.65;;;13.60;78.20;;;;;;5058974;28;20476;-60
2021/10/24 09:01:19;;;;;;;4.18;1.23;;;13.60;78.20;;;;;;5043738;28;20084;-60
2021/10/24 09:04:03;;;;;;;7.63;1.60;;;13.60;78.30;;;;;;5054179;28;20442;-60
2021/10/24 09:06:43;;;;;;;11.40;1.20;;;13.60;77.10;;;;;;5060631;28;20132;-60
2021/10/24 09:09:14;;;;;;;3.08;1.20;;;13.60;77.00;;;;;;5056514;28;20094;-60
2021/10/24 09:11:42;;;;;;;6.80;1.42;;;13.70;77.70;;;;;;5061127;28;20366;-60
2021/10/24 09:14:10;;;;;;;5.10;1.33;;;13.70;78.40;;;;;;5065329;28;20044;-60
2021/10/24 09:16:52;;;;;;;11.05;2.10;;;13.70;77.30;;;;;;5058361;28;20080;-61
2021/10/24 09:19:19;;;;;;;7.95;2.00;;;13.70;76.30;;;;;;5061520;28;20049;-60
2021/10/24 09:21:46;;;;;;;7.18;1.40;;;13.60;77.20;;;;;;5061603;28;20080;-60
2021/10/24 09:24:13;;;;;;;4.97;1.77;;;13.60;77.40;;;;;;5065132;28;20106;-60
2021/10/24 09:26:40;;;;;;;1.80;0.82;;;13.60;77.80;;;;;;5058406;28;20105;-59
2021/10/24 09:29:08;;;;;;;6.88;1.25;;;13.60;77.50;;;;;;5065161;28;20049;-59
2021/10/24 09:31:54;;;;;;;4.93;1.40;;;13.60;76.80;;;;;;5058988;28;20502;-59
2021/10/24 09:34:23;;;;;;;2.33;1.17;;;13.60;75.70;;;;;;5055983;28;20072;-60
2021/10/24 09:36:54;;;;;;;3.53;1.20;;;13.50;76.70;;;;;;5063219;28;20492;-59
2021/10/24 09:39:32;;;;;;;6.95;1.40;;;13.40;77.00;;;;;;5054503;28;20126;-59
2021/10/24 09:42:18;;;;;;;6.07;1.83;;;13.40;77.20;;;;;;5062135;28;20060;-60
2021/10/24 09:45:11;;;;;;;5.05;1.25;;;13.40;75.00;;;;;;5056937;28;20496;-60
2021/10/24 09:47:45;;;;;;;5.00;1.55;;;13.40;75.70;;;;;;5063305;28;20048;-60
2021/10/24 09:50:32;;;;;;;;;;;13.40;76.30;;;;;;5061305;28;20072;-59
2021/10/24 09:53:12;;;;;;;8.48;1.92;;;13.40;75.90;;;;;;5057685;28;19921;-59
2021/10/24 09:55:39;;;;;;;5.07;2.00;;;13.40;76.20;;;;;;5066095;28;20060;-60
2021/10/24 09:58:07;;;;;;;7.72;1.77;;;13.30;77.10;;;;;;5062550;28;20041;-59
2021/10/24 10:00:34;;;;;;;5.88;1.60;;;13.30;77.30;;;;;;5066201;28;20094;-60
2021/10/24 10:03:01;;;;;;;5.38;1.70;;;13.30;77.40;;;;;;5064649;28;20060;-60
2021/10/24 10:05:28;;;;;;;8.27;1.30;;;13.30;77.40;;;;;;5052051;28;20056;-60
2021/10/24 10:07:55;;;;;;;3.78;1.40;;;13.20;77.50;;;;;;5062434;28;20082;-61
2021/10/24 10:10:22;;;;;;;2.83;1.25;;;13.20;77.50;;;;;;5069070;28;20051;-60
2021/10/24 10:12:49;;;;;;;4.32;1.40;;;13.20;77.20;;;;;;5034597;28;20049;-59
2021/10/24 10:15:16;;;;;;;6.93;1.48;;;13.20;77.30;;;;;;5044788;28;20052;-61
2021/10/24 10:17:43;;;;;;;6.65;1.13;;;13.20;77.50;;;;;;5057843;28;20462;-59
2021/10/24 10:20:21;;;;;;;4.53;1.15;;;13.30;77.50;;;;;;5055075;28;20048;-60
2021/10/24 10:23:05;;;;;;;5.30;1.52;;;13.40;76.60;;;;;;5068178;28;20052;-60
2021/10/24 10:25:33;;;;;;;3.22;1.05;;;13.50;76.30;;;;;;5057123;28;20049;-61
2021/10/24 10:28:00;;;;;;;7.90;1.30;;;13.70;76.80;;;;;;5065792;28;20052;-61
2021/10/24 10:30:35;;;;;;;2.88;1.10;;;13.50;76.40;;;;;;5056022;28;20080;-61
2021/10/24 10:33:22;;;;;;;7.03;1.27;;;13.60;75.90;;;;;;5059154;28;20102;-61
2021/10/24 10:35:52;;;;;;;13.68;1.67;;;13.70;76.50;;;;;;5056689;28;20543;-61
2021/10/24 10:38:32;;;;;;;3.13;1.10;;;13.70;75.60;;;;;;5056785;28;20041;-62
2021/10/24 10:40:59;;;;;;;5.78;1.10;;;13.80;76.30;;;;;;5067830;28;20547;-61
2021/10/24 10:43:26;;;;;;;7.60;1.92;;;13.80;76.60;;;;;;5067678;28;20504;-60
2021/10/24 10:45:57;;;;;;;5.22;1.17;;;13.90;76.40;;;;;;5056736;28;20041;-60
2021/10/24 10:48:38;;;;;;;4.55;1.25;;;13.80;75.40;;;;;;5055223;28;20036;-62
2021/10/24 10:51:21;;;;;;;5.05;1.17;;;13.80;74.40;;;;;;5058198;28;20049;-60
2021/10/24 10:53:49;;;;;;;3.90;1.20;;;13.80;74.90;;;;;;5054045;28;20110;-61
2021/10/24 10:56:23;;;;;;;6.40;2.30;;;13.80;74.80;;;;;;5058404;28;20048;-60
2021/10/24 10:58:57;;;;;;;2.83;1.13;;;13.90;76.10;;;;;;5058641;28;20095;-59
2021/10/24 11:01:24;;;;;;;;;;;14.10;75.40;;;;;;5060032;28;20484;-61
2021/10/24 11:03:53;;;;;;;6.53;1.88;;;14.10;73.90;;;;;;5059693;28;19928;-60
2021/10/24 11:06:23;;;;;;;2.72;0.90;;;14.10;75.20;;;;;;5069545;28;20367;-60
2021/10/24 11:08:54;;;;;;;11.75;1.98;;;14.10;74.20;;;;;;5070037;28;20127;-61
2021/10/24 11:11:48;;;;;;;3.35;0.85;;;14.10;74.50;;;;;;5058290;28;20041;-61
2021/10/24 11:14:14;;;;;;;3.15;0.80;;;14.10;73.20;;;;;;5053619;28;20494;-61
2021/10/24 11:16:42;;;;;;;3.03;1.42;;;14.10;74.50;;;;;;5055557;28;20495;-59
2021/10/24 11:22:09;;;;;;;2.65;1.33;;;14.10;70.90;;;;;;5056560;28;20483;-59
2021/10/24 11:24:36;;;;;;;3.55;1.02;;;14.10;73.10;;;;;;5064723;28;20487;-61
2021/10/24 11:27:04;;;;;;;3.78;1.20;;;14.10;73.90;;;;;;5055244;28;20103;-60
2021/10/24 11:29:33;;;;;;;3.58;1.17;;;14.20;73.90;;;;;;5054134;28;20048;-61
2021/10/24 11:32:35;;;;;;;3.63;1.33;;;14.20;73.10;;;;;;5062053;28;20079;-60
2021/10/24 11:35:13;;;;;;;3.05;0.90;;;14.30;71.70;;;;;;5054498;28;20053;-60
2021/10/24 11:37:45;;;;;;;4.47;1.23;;;14.40;71.50;;;;;;5053971;28;20095;-60
2021/10/24 11:40:13;;;;;;;6.53;1.20;;;14.40;74.00;;;;;;5052592;28;20088;-59
2021/10/24 11:42:41;;;;;;;4.97;1.25;;;14.50;74.30;;;;;;5064715;28;20496;-59
2021/10/24 11:45:23;;;;;;;9.82;1.50;;;14.50;74.20;;;;;;5064166;28;20111;-59
2021/10/24 11:48:09;;;;;;;3.97;1.27;;;14.60;70.90;;;;;;5054108;28;20092;-59
2021/10/24 11:50:45;;;;;;;7.18;1.90;;;14.50;69.60;;;;;;5053447;28;20538;-59
2021/10/24 11:53:27;;;;;;;6.35;1.45;;;14.60;71.60;;;;;;5057051;28;20088;-59
2021/10/24 11:55:57;;;;;;;3.88;1.23;;;14.60;72.00;;;;;;5052708;28;20041;-60
2021/10/24 12:01:17;;;;;;;8.18;1.30;;;14.50;73.40;;;;;;5062824;28;20049;-61
2021/10/24 12:03:53;;;;;;;6.07;1.88;;;14.60;73.70;;;;;;5053230;28;20128;-61
2021/10/24 12:06:47;;;;;;;7.65;1.55;;;14.60;72.60;;;;;;5053384;28;20075;-60
2021/10/24 12:09:23;;;;;;;6.68;1.30;;;14.60;68.90;;;;;;5063487;28;20083;-59
2021/10/24 12:11:50;;;;;;;7.47;1.65;;;14.50;72.30;;;;;;5061396;28;20499;-59
2021/10/24 12:14:17;;;;;;;4.28;1.42;;;14.60;71.80;;;;;;5062702;28;20048;-60
2021/10/24 12:16:47;;;;;;;7.32;1.70;;;14.50;71.60;;;;;;5065606;28;20136;-60
2021/10/24 12:19:28;;;;;;;7.68;1.77;;;14.50;71.80;;;;;;5062151;28;20041;-60
2021/10/24 12:22:08;;;;;;;4.93;1.40;;;14.50;70.90;;;;;;5066813;28;20088;-61
2021/10/24 12:24:48;;;;;;;2.10;1.10;;;14.50;70.60;;;;;;5061392;28;20128;-60
2021/10/24 12:27:24;;;;;;;3.88;1.92;;;14.50;68.60;;;;;;5065483;28;20520;-60
2021/10/24 12:30:01;;;;;;;6.15;1.90;;;14.60;71.60;;;;;;5056977;28;20401;-59
2021/10/24 12:32:28;;;;;;;5.60;1.38;;;14.70;70.00;;;;;;5064986;28;20049;-59
2021/10/24 12:35:09;;;;;;;4.95;1.30;;;14.70;71.50;;;;;;5067137;28;20123;-59
2021/10/24 12:37:37;;;;;;;5.05;1.27;;;14.70;69.90;;;;;;5065494;28;20123;-60
2021/10/24 12:40:33;;;;;;;7.25;1.83;;;14.80;69.00;;;;;;5055090;28;20571;-60
2021/10/24 12:43:11;;;;;;;6.32;1.50;;;14.90;69.10;;;;;;5044944;28;20059;-59
2021/10/24 12:45:51;;;;;;;3.97;1.30;;;14.90;70.90;;;;;;5066485;28;20079;-60
2021/10/24 12:48:20;;;;;;;13.48;1.63;;;14.90;70.60;;;;;;5063682;28;20048;-59
2021/10/24 12:50:47;;;;;;;7.10;1.45;;;14.80;72.00;;;;;;5055560;28;20056;-60
2021/10/24 12:53:17;;;;;;;4.75;1.38;;;14.70;72.10;;;;;;5059698;28;20077;-59
2021/10/24 12:56:06;;;;;;;6.63;1.83;;;14.60;71.20;;;;;;5055533;28;20049;-60
2021/10/24 12:58:33;;;;;;;5.88;3.13;;;14.60;72.40;;;;;;5063296;28;20463;-62
2021/10/24 13:01:00;;;;;;;3.50;1.35;;;14.60;73.00;;;;;;5055803;28;20049;-60
2021/10/24 13:03:27;;;;;;;8.20;1.50;;;14.60;73.10;;;;;;5059281;28;20545;-60